LDDU/DBV METAR and TAF weather

Enter ICAO airport designator
Station Type Date Time Source
LDDU METAR 2022/07/03 14:30 UTC NOAA

LDDU 031430Z 26006KT 220V320 CAVOK 30/20 Q1015 TEMPO 29008KT


Station Type Date Time Source
LDDU Decoded METAR 2022/07/03 14:30 UTC NOAA

Dubrovnik / Cilipi, Croatia (LDDU) 42-34N 018-16E 165M
Jul 03, 2022 - 10:30 AM EDT / 2022.07.03 1430 UTC
Wind: from the W (260 degrees) at 7 MPH (6 KT) (direction variable):0
Visibility: greater than 7 mile(s):0
Temperature: 86 F (30 C)
Dew Point: 68 F (20 C)
Relative Humidity: 55%
Pressure (altimeter): 29.97 in. Hg (1015 hPa)
ob: LDDU 031430Z 26006KT 220V320 CAVOK 30/20 Q1015 TEMPO 29008KT
cycle: 14

Station Type Date Time Source
LDDU TAF 2022/07/03 12:27 UTC NOAA

TAF TAF LDDU 031125Z 0312/0412 21008KT CAVOK TX33/0312Z TN26/0403Z
BECMG 0313/0315 29007KT
BECMG 0318/0320 03008KT
BECMG 0410/0412 26008KT

Example: see airport list